Time;durP1;ratioP1;P1;durP2;ratioP2;P2;SDS_P1;SDS_P2;PMS_P1;PMS_P2;Temp;Humidity;BMP_temperature;BMP_pressure;BME280_temperature;BME280_humidity;BME280_pressure;Samples;Min_cycle;Max_cycle;Signal;HPM_P1;HPM_P2
2024/02/26 00:00:30;;;;;;;;;;;;;;;16.55;49.83;100602.69;4957981;29;1072;-48
2024/02/26 00:02:55;;;;;;;;;;;;;;;17.29;47.42;100606.00;4958812;29;1085;-49
2024/02/26 00:05:21;;;;;;;;;;;;;;;16.35;49.76;100598.91;4958338;29;1108;-49
2024/02/26 00:07:47;;;;;;;;;;;;;;;15.93;50.45;100594.81;4937467;29;1193;-49
2024/02/26 00:10:13;;;;;;;;;;;;;;;15.67;50.92;100589.56;4946984;29;1149;-47
2024/02/26 00:12:39;;;;;;;;;;;;;;;15.49;51.29;100595.25;4957187;29;1101;-48
2024/02/26 00:15:08;;;;;;;;;;;;;;;15.36;51.67;100597.91;4958411;29;1914;-48
2024/02/26 00:17:33;;;;;;;;;;;;;;;16.77;49.09;100598.41;4958248;29;1057;-47
2024/02/26 00:20:00;;;;;;;;;;;;;;;16.93;48.42;100594.59;4954400;29;905;-48
2024/02/26 00:22:26;;;;;;;;;;;;;;;16.11;50.32;100584.69;4945251;29;1207;-47
2024/02/26 00:24:51;;;;;;;;;;;;;;;15.77;50.78;100590.59;4958062;29;1041;-50
2024/02/26 00:27:17;;;;;;;;;;;;;;;15.53;51.50;100586.09;4958124;29;1109;-47
2024/02/26 00:29:42;;;;;;;;;;;;;;;15.38;51.47;100588.03;4958127;29;1069;-50
2024/02/26 00:32:08;;;;;;;;;;;;;;;15.62;51.80;100584.59;4945433;29;1066;-47
2024/02/26 00:34:33;;;;;;;;;;;;;;;17.09;48.38;100592.47;4958095;28;1910;-48
2024/02/26 00:36:59;;;;;;;;;;;;;;;16.94;48.31;100586.50;4958061;29;1149;-49
2024/02/26 00:39:24;;;;;;;;;;;;;;;16.24;49.88;100587.28;4958509;29;1038;-48
2024/02/26 00:41:51;;;;;;;;;;;;;;;15.76;50.76;100588.94;4958188;29;1161;-50
2024/02/26 00:44:17;;;;;;;;;;;;;;;15.59;51.10;100586.63;4952906;29;918;-52
2024/02/26 00:46:42;;;;;;;;;;;;;;;15.47;51.06;100588.34;4945127;29;1161;-48
2024/02/26 00:49:08;;;;;;;;;;;;;;;15.77;51.19;100582.66;4958191;29;1073;-48
2024/02/26 00:51:33;;;;;;;;;;;;;;;17.18;47.97;100585.59;4957454;29;1085;-50
2024/02/26 00:53:59;;;;;;;;;;;;;;;16.57;48.83;100581.34;4946772;29;1205;-48
2024/02/26 00:56:24;;;;;;;;;;;;;;;16.05;50.08;100577.16;4944221;29;1910;-51
2024/02/26 00:58:51;;;;;;;;;;;;;;;15.77;51.00;100572.03;4958026;29;1106;-51
2024/02/26 01:01:16;;;;;;;;;;;;;;;15.52;51.21;100573.81;4957816;29;1133;-48
2024/02/26 01:03:42;;;;;;;;;;;;;;;15.32;51.69;100571.72;4957649;29;1217;-47
2024/02/26 01:06:07;;;;;;;;;;;;;;;16.34;49.93;100573.31;4957895;28;1085;-48
2024/02/26 01:08:35;;;;;;;;;;;;;;;17.31;47.40;100556.22;4946500;29;1043;-51
2024/02/26 01:11:01;;;;;;;;;;;;;;;16.33;49.54;100563.66;4952389;29;1146;-49
2024/02/26 01:13:26;;;;;;;;;;;;;;;15.89;50.40;100551.75;4948692;29;1122;-48
2024/02/26 01:15:52;;;;;;;;;;;;;;;15.71;50.64;100553.94;4957499;29;1918;-47
2024/02/26 01:18:17;;;;;;;;;;;;;;;15.49;51.15;100549.31;4957868;29;1050;-48
2024/02/26 01:20:43;;;;;;;;;;;;;;;16.04;50.78;100551.59;4957380;28;1128;-48
2024/02/26 01:23:09;;;;;;;;;;;;;;;17.28;47.69;100553.81;4957164;29;1117;-44
2024/02/26 01:25:34;;;;;;;;;;;;;;;16.32;49.59;100552.19;4953577;28;1232;-49
2024/02/26 01:28:00;;;;;;;;;;;;;;;15.86;50.67;100557.28;4948756;29;1161;-48
2024/02/26 01:30:25;;;;;;;;;;;;;;;15.54;51.14;100545.38;4945011;29;1189;-48
2024/02/26 01:32:51;;;;;;;;;;;;;;;15.45;51.34;100548.69;4951109;29;1001;-46
2024/02/26 01:35:16;;;;;;;;;;;;;;;15.64;51.50;100552.66;4944519;29;1977;-47
2024/02/26 01:37:42;;;;;;;;;;;;;;;17.13;47.87;100553.22;4957976;29;1221;-49
2024/02/26 01:40:09;;;;;;;;;;;;;;;16.55;48.83;100551.41;4957323;29;1093;-50
2024/02/26 01:42:34;;;;;;;;;;;;;;;15.95;50.20;100555.72;4957552;29;1100;-49
2024/02/26 01:45:00;;;;;;;;;;;;;;;15.70;50.89;100554.03;4944839;29;1108;-52
2024/02/26 01:47:26;;;;;;;;;;;;;;;15.50;51.19;100556.31;4961287;29;1094;-50
2024/02/26 01:49:52;;;;;;;;;;;;;;;15.29;51.40;100565.69;4961084;29;1077;-47
2024/02/26 01:52:18;;;;;;;;;;;;;;;16.65;49.20;100557.69;4960878;29;1072;-46
2024/02/26 01:54:44;;;;;;;;;;;;;;;17.06;47.67;100554.63;4959250;29;2022;-49
2024/02/26 01:57:11;;;;;;;;;;;;;;;16.13;49.74;100558.03;4960826;29;1025;-48
2024/02/26 01:59:37;;;;;;;;;;;;;;;15.83;50.42;100564.59;4955038;29;1061;-47
2024/02/26 02:02:03;;;;;;;;;;;;;;;15.57;50.97;100562.88;4953202;29;1062;-49
2024/02/26 02:04:28;;;;;;;;;;;;;;;15.54;51.37;100568.41;4955582;29;1233;-45
2024/02/26 02:06:54;;;;;;;;;;;;;;;17.04;48.15;100562.72;4953777;29;1146;-45
2024/02/26 02:09:20;;;;;;;;;;;;;;;16.83;48.02;100570.53;4960079;29;979;-47
2024/02/26 02:11:46;;;;;;;;;;;;;;;16.12;49.82;100567.78;4943785;29;1062;-48
2024/02/26 02:14:11;;;;;;;;;;;;;;;15.76;50.70;100565.06;4960271;29;1980;-48
2024/02/26 02:16:37;;;;;;;;;;;;;;;15.54;51.06;100565.75;4961043;29;1066;-47
2024/02/26 02:19:02;;;;;;;;;;;;;;;15.37;51.18;100566.94;4960882;29;1057;-49
2024/02/26 02:21:28;;;;;;;;;;;;;;;16.22;50.02;100565.28;4950952;29;980;-48
2024/02/26 02:23:53;;;;;;;;;;;;;;;17.29;47.20;100560.81;4960722;29;1140;-49
2024/02/26 02:26:19;;;;;;;;;;;;;;;16.35;49.23;100567.88;4960439;29;1062;-49
2024/02/26 02:28:45;;;;;;;;;;;;;;;15.94;50.10;100561.16;4960032;29;1097;-48
2024/02/26 02:31:10;;;;;;;;;;;;;;;15.70;50.52;100562.00;4960029;29;1124;-50
2024/02/26 02:33:36;;;;;;;;;;;;;;;15.47;50.93;100561.81;4939727;29;1019;-50
2024/02/26 02:36:01;;;;;;;;;;;;;;;15.46;51.55;100561.00;4959972;29;1907;-49
2024/02/26 02:38:29;;;;;;;;;;;;;;;16.93;48.24;100557.41;4960343;29;1077;-49
2024/02/26 02:40:55;;;;;;;;;;;;;;;17.11;47.37;100557.78;4960262;29;1104;-47
2024/02/26 02:43:20;;;;;;;;;;;;;;;16.26;49.39;100555.31;4960027;29;1073;-50
2024/02/26 02:45:46;;;;;;;;;;;;;;;15.94;50.33;100553.19;4960166;29;1097;-48
2024/02/26 02:48:11;;;;;;;;;;;;;;;15.63;50.44;100551.00;4959951;29;1097;-50
2024/02/26 02:50:37;;;;;;;;;;;;;;;15.44;51.01;100560.25;4960212;29;1034;-51
2024/02/26 02:53:02;;;;;;;;;;;;;;;16.59;49.07;100552.84;4959614;29;1117;-53
2024/02/26 02:55:28;;;;;;;;;;;;;;;17.27;47.23;100553.94;4959584;28;1907;-50
2024/02/26 02:57:54;;;;;;;;;;;;;;;16.34;49.47;100554.72;4959634;29;1155;-50
2024/02/26 03:00:19;;;;;;;;;;;;;;;15.93;50.28;100554.16;4960508;29;1119;-52
2024/02/26 03:02:46;;;;;;;;;;;;;;;15.71;50.72;100555.72;4959782;29;1093;-52
2024/02/26 03:05:11;;;;;;;;;;;;;;;15.53;50.96;100559.59;4951406;29;1240;-49
2024/02/26 03:07:37;;;;;;;;;;;;;;;15.54;51.43;100566.59;4954726;29;1105;-48
2024/02/26 03:10:03;;;;;;;;;;;;;;;17.02;48.17;100561.97;4951769;28;1145;-45
2024/02/26 03:12:30;;;;;;;;;;;;;;;17.13;47.27;100570.00;4956017;29;1185;-52
2024/02/26 03:14:55;;;;;;;;;;;;;;;16.26;49.43;100571.22;4960052;29;1976;-47
2024/02/26 03:17:21;;;;;;;;;;;;;;;15.93;50.01;100568.28;4946847;29;1213;-49
2024/02/26 03:19:46;;;;;;;;;;;;;;;15.72;50.65;100574.19;4959154;28;1074;-46
2024/02/26 03:22:12;;;;;;;;;;;;;;;15.51;50.79;100566.81;4959886;29;1128;-47
2024/02/26 03:24:38;;;;;;;;;;;;;;;15.50;50.92;100565.09;4959492;29;1148;-45
2024/02/26 03:27:09;;;;;;;;;;;;;;;16.93;48.27;100562.72;4946289;29;1145;-48
2024/02/26 03:29:34;;;;;;;;;;;;;;;16.83;47.95;100568.72;4959606;29;1061;-53
2024/02/26 03:32:00;;;;;;;;;;;;;;;16.17;49.67;100559.47;4959005;28;1090;-50
2024/02/26 03:34:26;;;;;;;;;;;;;;;15.78;50.32;100567.59;4959230;29;1989;-47
2024/02/26 03:36:52;;;;;;;;;;;;;;;15.62;50.67;100557.22;4959669;29;1054;-49
2024/02/26 03:39:17;;;;;;;;;;;;;;;15.42;50.88;100555.06;4949170;29;1258;-48
2024/02/26 03:41:43;;;;;;;;;;;;;;;15.95;50.54;100560.22;4957079;29;1093;-48
2024/02/26 03:44:08;;;;;;;;;;;;;;;17.24;47.37;100561.19;4958865;29;1128;-49
2024/02/26 03:46:34;;;;;;;;;;;;;;;16.35;49.19;100561.75;4958945;29;1100;-48
2024/02/26 03:48:59;;;;;;;;;;;;;;;15.88;49.99;100560.63;4959095;29;1053;-48
2024/02/26 03:51:25;;;;;;;;;;;;;;;15.55;50.74;100560.31;4958789;29;1212;-52
2024/02/26 03:53:50;;;;;;;;;;;;;;;15.42;50.80;100562.16;4958803;29;1093;-49
2024/02/26 03:56:16;;;;;;;;;;;;;;;15.90;50.62;100557.88;4958181;29;1968;-46
2024/02/26 03:58:41;;;;;;;;;;;;;;;17.27;47.47;100560.09;4958774;29;1541;-45
2024/02/26 04:01:07;;;;;;;;;;;;;;;16.75;48.11;100557.84;4946175;29;1137;-51
2024/02/26 04:03:33;;;;;;;;;;;;;;;16.07;49.72;100555.81;4958549;29;1084;-49
2024/02/26 04:05:58;;;;;;;;;;;;;;;15.77;50.10;100561.44;4959005;29;1151;-49
2024/02/26 04:08:24;;;;;;;;;;;;;;;15.57;50.54;100562.88;4952084;28;1275;-45
2024/02/26 04:10:49;;;;;;;;;;;;;;;15.38;50.91;100568.66;4945928;29;1138;-48
2024/02/26 04:13:15;;;;;;;;;;;;;;;15.97;50.33;100567.09;4958534;29;1065;-48
2024/02/26 04:15:40;;;;;;;;;;;;;;;17.29;47.14;100573.25;4958533;29;1970;-48
2024/02/26 04:18:06;;;;;;;;;;;;;;;16.53;48.74;100564.81;4958145;29;1428;-49
2024/02/26 04:20:32;;;;;;;;;;;;;;;15.99;49.91;100574.97;4955957;29;1042;-48
2024/02/26 04:22:57;;;;;;;;;;;;;;;15.73;50.40;100567.06;4941333;29;1152;-45
2024/02/26 04:25:23;;;;;;;;;;;;;;;15.48;50.81;100569.66;4958574;29;1102;-49
2024/02/26 04:27:48;;;;;;;;;;;;;;;15.34;51.06;100564.50;4958596;29;1049;-49
2024/02/26 04:30:14;;;;;;;;;;;;;;;16.35;49.45;100567.88;4956545;29;1078;-46
2024/02/26 04:32:39;;;;;;;;;;;;;;;17.49;46.73;100561.03;4942975;29;1190;-49
2024/02/26 04:35:05;;;;;;;;;;;;;;;16.52;48.78;100565.75;4954314;29;1981;-45
2024/02/26 04:37:31;;;;;;;;;;;;;;;16.05;49.72;100561.22;4958229;29;1041;-45
2024/02/26 04:40:00;;;;;;;;;;;;;;;15.73;50.21;100561.78;4955630;29;1259;-51
2024/02/26 04:42:25;;;;;;;;;;;;;;;15.53;50.81;100559.59;4948768;29;1228;-46
2024/02/26 04:44:51;;;;;;;;;;;;;;;15.38;51.40;100558.03;4955289;29;1141;-44
2024/02/26 04:47:16;;;;;;;;;;;;;;;16.90;48.12;100561.13;4958480;29;1109;-46
2024/02/26 04:49:42;;;;;;;;;;;;;;;17.00;47.53;100561.25;4958078;29;1046;-46
2024/02/26 04:52:07;;;;;;;;;;;;;;;16.28;49.09;100559.53;4957624;29;2587;-51
2024/02/26 04:54:33;;;;;;;;;;;;;;;15.88;50.35;100557.16;4956126;29;1963;-43
2024/02/26 04:56:58;;;;;;;;;;;;;;;15.73;50.51;100552.00;4950931;29;1120;-46
2024/02/26 04:59:24;;;;;;;;;;;;;;;15.45;50.87;100555.81;4952029;29;976;-48
2024/02/26 05:01:51;;;;;;;;;;;;;;;16.00;50.33;100550.97;4950382;29;1379;-44
2024/02/26 05:04:17;;;;;;;;;;;;;;;17.37;46.88;100557.53;4957533;29;1363;-46
2024/02/26 05:06:42;;;;;;;;;;;;;;;16.70;48.00;100554.72;4957690;28;1105;-46
2024/02/26 05:09:08;;;;;;;;;;;;;;;16.02;49.89;100545.53;4957384;29;1116;-44
2024/02/26 05:11:34;;;;;;;;;;;;;;;15.81;50.38;100551.44;4957711;29;1007;-46
2024/02/26 05:14:00;;;;;;;;;;;;;;;16.47;49.44;100552.84;4957538;29;1038;-45
2024/02/26 05:16:27;;;;;;;;;;;;;;;17.66;46.63;100554.38;4957922;29;1907;-47
2024/02/26 05:18:52;;;;;;;;;;;;;;;15.91;49.84;100563.06;4955731;28;1029;-46
2024/02/26 05:21:18;;;;;;;;;;;;;;;15.32;50.09;100566.41;4952509;29;2659;-41
2024/02/26 05:23:43;;;;;;;;;;;;;;;16.60;49.86;100573.16;4961187;29;1064;-43
2024/02/26 05:26:09;;;;;;;;;;;;;;;17.44;47.22;100580.03;4961494;29;957;-42
2024/02/26 05:28:35;;;;;;;;;;;;;;;15.84;49.66;100580.41;4961312;29;1121;-44
2024/02/26 05:31:01;;;;;;;;;;;;;;;15.72;51.01;100579.47;4961286;28;1080;-39
2024/02/26 05:33:26;;;;;;;;;;;;;;;17.71;47.17;100586.75;4961259;29;1023;-43
2024/02/26 05:35:52;;;;;;;;;;;;;;;16.18;48.93;100587.72;4961573;29;1914;-43
2024/02/26 05:38:17;;;;;;;;;;;;;;;16.49;49.92;100588.09;4961338;29;1042;-43
2024/02/26 05:40:43;;;;;;;;;;;;;;;17.18;47.87;100582.94;4961380;29;1030;-46
2024/02/26 05:43:08;;;;;;;;;;;;;;;16.04;49.39;100588.75;4951799;29;1149;-42
2024/02/26 05:45:34;;;;;;;;;;;;;;;16.27;50.28;100586.19;4952271;29;1037;-45
2024/02/26 05:47:59;;;;;;;;;;;;;;;16.90;48.68;100595.66;4961139;29;1089;-43
2024/02/26 05:50:25;;;;;;;;;;;;;;;15.91;49.41;100608.16;4960630;29;2415;-45
2024/02/26 05:52:50;;;;;;;;;;;;;;;15.66;48.20;100611.75;4960835;29;1184;-45
2024/02/26 05:55:16;;;;;;;;;;;;;;;17.17;49.01;100602.50;4960182;29;1971;-44
2024/02/26 05:57:41;;;;;;;;;;;;;;;16.75;48.83;100601.19;4960635;29;931;-44
2024/02/26 06:00:07;;;;;;;;;;;;;;;15.98;49.13;100605.94;4960685;29;1053;-46
2024/02/26 06:02:39;;;;;;;;;;;;;;;16.33;49.91;100601.66;4960369;29;1153;-41
2024/02/26 06:05:05;;;;;;;;;;;;;;;16.86;48.89;100596.88;4960449;29;1109;-47
2024/02/26 06:07:32;;;;;;;;;;;;;;;16.01;49.36;100604.88;4960569;29;1014;-44
2024/02/26 06:09:58;;;;;;;;;;;;;;;16.26;50.66;100595.13;4959784;29;1077;-43
2024/02/26 06:12:23;;;;;;;;;;;;;;;17.38;48.13;100601.78;4960239;29;1125;-48
2024/02/26 06:14:49;;;;;;;;;;;;;;;16.23;49.24;100598.81;4960423;29;1911;-44
2024/02/26 06:17:14;;;;;;;;;;;;;;;16.87;50.22;100602.06;4960383;29;1041;-42
2024/02/26 06:19:40;;;;;;;;;;;;;;;16.69;49.02;100611.44;4960735;29;1034;-44
2024/02/26 06:22:06;;;;;;;;;;;;;;;16.12;48.99;100606.75;4960043;29;2683;-41
2024/02/26 06:24:31;;;;;;;;;;;;;;;16.46;50.22;100611.38;4960325;29;1046;-45
2024/02/26 06:26:57;;;;;;;;;;;;;;;17.59;47.82;100598.38;4960640;29;1096;-47
2024/02/26 06:29:22;;;;;;;;;;;;;;;16.21;49.44;100608.75;4952490;29;1145;-43
2024/02/26 06:31:48;;;;;;;;;;;;;;;16.00;48.83;100613.78;4954374;28;1247;-42
2024/02/26 06:34:13;;;;;;;;;;;;;;;15.73;48.10;100612.16;4959735;29;1101;-39
2024/02/26 06:36:39;;;;;;;;;;;;;;;17.27;49.02;100613.25;4959625;29;1977;-45
2024/02/26 06:39:05;;;;;;;;;;;;;;;16.46;49.34;100617.53;4959686;29;1140;-45
2024/02/26 06:41:31;;;;;;;;;;;;;;;15.88;48.96;100612.88;4959809;29;1287;-40
2024/02/26 06:43:56;;;;;;;;;;;;;;;15.79;47.99;100620.53;4959373;29;1188;-40
2024/02/26 06:46:22;;;;;;;;;;;;;;;15.95;49.06;100616.75;4950069;29;1014;-40
2024/02/26 06:48:48;;;;;;;;;;;;;;;17.47;48.11;100619.66;4959809;29;1050;-43
2024/02/26 06:51:13;;;;;;;;;;;;;;;16.15;49.51;100617.13;4959384;29;2473;-41
2024/02/26 06:53:39;;;;;;;;;;;;;;;15.81;48.85;100624.88;4959540;29;1243;-42
2024/02/26 06:56:04;;;;;;;;;;;;;;;15.62;47.83;100627.03;4959300;29;1992;-43
2024/02/26 06:58:30;;;;;;;;;;;;;;;15.46;47.11;100621.13;4950346;29;1109;-40
2024/02/26 07:00:55;;;;;;;;;;;;;;;16.41;49.15;100614.38;4959843;29;1402;-41
2024/02/26 07:03:22;;;;;;;;;;;;;;;17.34;48.25;100617.13;4959327;29;1073;-40
2024/02/26 07:05:48;;;;;;;;;;;;;;;16.05;49.12;100622.25;4959190;29;1129;-45
2024/02/26 07:08:13;;;;;;;;;;;;;;;15.74;48.41;100620.00;4959538;29;1130;-42
2024/02/26 07:10:39;;;;;;;;;;;;;;;15.54;48.07;100626.72;4957943;29;999;-45
2024/02/26 07:13:04;;;;;;;;;;;;;;;17.13;48.67;100609.84;4958984;29;1260;-42
2024/02/26 07:15:30;;;;;;;;;;;;;;;15.95;49.47;100611.44;4958744;29;1983;-42
2024/02/26 07:17:56;;;;;;;;;;;;;;;15.59;48.72;100614.00;4959780;29;974;-42
2024/02/26 07:20:21;;;;;;;;;;;;;;;17.14;48.50;100618.69;4959086;29;2523;-40
2024/02/26 07:22:47;;;;;;;;;;;;;;;15.98;49.42;100613.03;4958720;29;1046;-45
2024/02/26 07:25:16;;;;;;;;;;;;;;;15.76;48.27;100611.94;4959081;29;1080;-44
2024/02/26 07:27:41;;;;;;;;;;;;;;;16.84;49.05;100610.28;4959119;29;1053;-41
2024/02/26 07:30:08;;;;;;;;;;;;;;;17.09;48.50;100610.22;4959216;29;1300;-46
2024/02/26 07:32:33;;;;;;;;;;;;;;;16.06;48.96;100609.84;4958999;29;1100;-45
2024/02/26 07:34:59;;;;;;;;;;;;;;;15.79;48.45;100607.25;4956762;29;1915;-45
2024/02/26 07:37:24;;;;;;;;;;;;;;;15.57;47.87;100612.38;4950078;29;914;-42
2024/02/26 07:39:50;;;;;;;;;;;;;;;16.37;49.25;100607.59;4959149;29;1102;-43
2024/02/26 07:42:15;;;;;;;;;;;;;;;17.32;48.19;100610.22;4958373;28;1046;-44
2024/02/26 07:44:42;;;;;;;;;;;;;;;16.17;49.33;100607.25;4958937;29;1041;-44
2024/02/26 07:47:09;;;;;;;;;;;;;;;15.83;48.47;100607.03;4954539;29;1061;-46
2024/02/26 07:49:34;;;;;;;;;;;;;;;15.60;47.70;100602.41;4950357;29;1014;-40
2024/02/26 07:52:00;;;;;;;;;;;;;;;17.19;48.71;100607.69;4954367;28;2451;-45
2024/02/26 07:54:25;;;;;;;;;;;;;;;16.27;49.42;100605.63;4950095;29;1910;-42
2024/02/26 07:56:51;;;;;;;;;;;;;;;15.83;48.95;100601.72;4957908;29;1073;-44
2024/02/26 07:59:16;;;;;;;;;;;;;;;15.78;49.31;100600.25;4958346;29;938;-46
2024/02/26 08:01:43;;;;;;;;;;;;;;;17.64;48.04;100604.19;4958251;28;1092;-41
2024/02/26 08:04:08;;;;;;;;;;;;;;;16.85;48.79;100611.13;4946086;29;1124;-43
2024/02/26 08:06:34;;;;;;;;;;;;;;;16.14;48.90;100607.47;4957761;29;1010;-47
2024/02/26 08:08:59;;;;;;;;;;;;;;;15.90;48.54;100609.13;4952540;29;1110;-40
2024/02/26 08:11:25;;;;;;;;;;;;;;;17.65;47.96;100607.69;4950994;29;1015;-41
2024/02/26 08:13:50;;;;;;;;;;;;;;;16.32;49.04;100618.53;4953256;29;1082;-43
2024/02/26 08:16:16;;;;;;;;;;;;;;;15.89;48.30;100609.25;4958143;29;1930;-43
2024/02/26 08:18:41;;;;;;;;;;;;;;;16.30;49.73;100601.06;4957709;29;1272;-43
2024/02/26 08:21:08;;;;;;;;;;;;;;;18.06;47.47;100602.66;4958400;29;2555;-41
2024/02/26 08:23:34;;;;;;;;;;;;;;;16.63;49.19;100610.09;4940842;29;1090;-45
2024/02/26 08:25:59;;;;;;;;;;;;;;;16.09;48.85;100604.31;4958019;29;1097;-44
2024/02/26 08:28:25;;;;;;;;;;;;;;;15.82;48.28;100592.91;4958074;29;1038;-42
2024/02/26 08:30:50;;;;;;;;;;;;;;;16.68;48.76;100596.47;4958386;29;1129;-43
2024/02/26 08:33:16;;;;;;;;;;;;;;;15.91;48.49;100602.03;4957900;29;1113;-42
2024/02/26 08:35:41;;;;;;;;;;;;;;;15.92;48.93;100609.00;4958023;29;1979;-46
2024/02/26 08:38:07;;;;;;;;;;;;;;;16.94;48.39;100605.09;4957997;28;1129;-44
2024/02/26 08:40:32;;;;;;;;;;;;;;;16.05;48.60;100613.47;4957725;29;1153;-44
2024/02/26 08:42:58;;;;;;;;;;;;;;;15.73;48.08;100614.81;4958145;28;1109;-40
2024/02/26 08:45:24;;;;;;;;;;;;;;;17.25;48.55;100610.72;4957588;29;1272;-44
2024/02/26 08:47:49;;;;;;;;;;;;;;;16.98;48.35;100606.53;4957920;29;913;-41
2024/02/26 08:50:15;;;;;;;;;;;;;;;16.05;49.20;100616.13;4957616;29;2541;-45
2024/02/26 08:52:41;;;;;;;;;;;;;;;15.82;47.98;100613.28;4958306;29;1013;-42
2024/02/26 08:55:08;;;;;;;;;;;;;;;15.70;47.29;100623.00;4960422;28;1973;-41
2024/02/26 08:57:34;;;;;;;;;;;;;;;16.96;48.94;100615.63;4961947;29;1058;-43
2024/02/26 09:00:00;;;;;;;;;;;;;;;17.06;48.26;100619.25;4960530;29;1101;-44
2024/02/26 09:02:26;;;;;;;;;;;;;;;16.20;49.53;100617.63;4961818;29;1383;-43
2024/02/26 09:04:54;;;;;;;;;;;;;;;18.10;47.29;100623.56;4958099;29;1053;-42
2024/02/26 09:07:19;;;;;;;;;;;;;;;16.79;49.04;100625.72;4953588;29;1181;-43
2024/02/26 09:09:45;;;;;;;;;;;;;;;16.10;48.64;100620.13;4961212;29;1130;-42
2024/02/26 09:12:10;;;;;;;;;;;;;;;16.94;48.99;100622.84;4960821;29;1369;-46
2024/02/26 09:14:36;;;;;;;;;;;;;;;16.20;48.98;100617.63;4961300;29;1903;-42
2024/02/26 09:17:02;;;;;;;;;;;;;;;16.02;47.74;100619.84;4961368;29;1026;-42
2024/02/26 09:19:27;;;;;;;;;;;;;;;17.60;48.41;100619.53;4961333;29;1410;-42
2024/02/26 09:21:57;;;;;;;;;;;;;;;16.98;48.55;100616.34;4960859;29;2641;-42
2024/02/26 09:24:23;;;;;;;;;;;;;;;16.28;48.48;100615.25;4960680;29;1331;-45
2024/02/26 09:26:48;;;;;;;;;;;;;;;16.08;47.71;100614.06;4960981;29;1551;-42
2024/02/26 09:29:14;;;;;;;;;;;;;;;15.77;47.19;100613.63;4961778;29;1022;-41
2024/02/26 09:31:41;;;;;;;;;;;;;;;17.45;48.42;100615.44;4960159;29;1128;-41
2024/02/26 09:34:07;;;;;;;;;;;;;;;16.67;48.27;100600.06;4949729;29;1054;-42
2024/02/26 09:36:33;;;;;;;;;;;;;;;18.39;46.79;100613.31;4959799;29;1938;-41
2024/02/26 09:38:58;;;;;;;;;;;;;;;16.63;49.83;100616.25;4961064;29;1113;-39
2024/02/26 09:41:24;;;;;;;;;;;;;;;16.97;51.19;100617.28;4960131;29;1113;-45
2024/02/26 09:43:50;;;;;;;;;;;;;;;18.83;46.58;100621.22;4959796;29;989;-41
2024/02/26 09:46:17;;;;;;;;;;;;;;;14.94;53.70;100619.31;4960909;29;1070;-47
2024/02/26 09:48:44;;;;;;;;;;;;;;;17.92;49.11;100615.25;4954892;29;969;-45
2024/02/26 09:51:10;;;;;;;;;;;;;;;17.76;48.35;100620.97;4960751;29;2758;-47
2024/02/26 09:53:39;;;;;;;;;;;;;;;15.97;54.75;100611.31;4961300;29;1260;-41
2024/02/26 09:56:06;;;;;;;;;;;;;;;18.68;47.13;100607.38;4947865;29;1915;-46
2024/02/26 09:58:32;;;;;;;;;;;;;;;15.69;52.52;100608.88;4948194;29;1176;-45
2024/02/26 10:01:00;;;;;;;;;;;;;;;17.11;51.62;100600.31;4929287;29;1049;-46
2024/02/26 10:03:27;;;;;;;;;;;;;;;18.37;47.51;100599.31;4955083;29;1180;-42
2024/02/26 10:05:55;;;;;;;;;;;;;;;16.97;49.40;100601.34;4942948;29;1214;-45
2024/02/26 10:08:22;;;;;;;;;;;;;;;16.63;48.75;100599.47;4943954;29;1051;-45
2024/02/26 10:10:47;;;;;;;;;;;;;;;16.42;47.89;100592.16;4960726;29;1065;-43
2024/02/26 10:13:13;;;;;;;;;;;;;;;16.16;47.73;100589.66;4961143;29;1061;-45
2024/02/26 10:15:38;;;;;;;;;;;;;;;15.93;47.60;100592.16;4952455;29;1978;-43
2024/02/26 10:18:07;;;;;;;;;;;;;;;15.80;47.24;100586.88;4960289;29;1106;-43
2024/02/26 10:20:33;;;;;;;;;;;;;;;15.75;46.60;100595.16;4959535;29;2095;-41
2024/02/26 10:22:58;;;;;;;;;;;;;;;16.11;48.16;100595.31;4960036;29;1045;-46
2024/02/26 10:25:24;;;;;;;;;;;;;;;17.02;48.75;100593.88;4960213;29;1105;-44
2024/02/26 10:27:49;;;;;;;;;;;;;;;16.10;49.46;100585.63;4960111;29;1041;-43
2024/02/26 10:30:22;;;;;;;;;;;;;;;17.13;49.99;100585.94;4959505;29;1049;-48
2024/02/26 10:32:50;;;;;;;;;;;;;;;16.78;49.43;100578.88;4959015;29;1183;-44
2024/02/26 10:35:17;;;;;;;;;;;;;;;16.18;49.51;100578.91;4949140;29;1919;-42
2024/02/26 10:37:42;;;;;;;;;;;;;;;15.91;48.23;100576.31;4956757;29;1196;-43
2024/02/26 10:40:11;;;;;;;;;;;;;;;17.02;49.83;100570.81;4959881;29;1208;-42
2024/02/26 10:42:38;;;;;;;;;;;;;;;16.64;49.55;100570.16;4959797;29;1161;-42
2024/02/26 10:45:05;;;;;;;;;;;;;;;16.12;48.83;100572.25;4959586;29;1137;-47
2024/02/26 10:47:31;;;;;;;;;;;;;;;15.91;47.72;100562.22;4955794;29;1363;-42
2024/02/26 10:49:57;;;;;;;;;;;;;;;16.03;47.31;100560.53;4959848;29;1126;-54
2024/02/26 10:52:22;;;;;;;;;;;;;;;15.83;46.75;100561.94;4951045;29;2283;-44
2024/02/26 10:54:48;;;;;;;;;;;;;;;15.60;46.33;100553.88;4959710;29;1984;-44
2024/02/26 10:57:14;;;;;;;;;;;;;;;17.17;49.15;100553.78;4942598;29;1272;-49
2024/02/26 10:59:39;;;;;;;;;;;;;;;17.12;49.02;100551.50;4958840;29;1299;-44
2024/02/26 11:02:05;;;;;;;;;;;;;;;16.32;49.14;100543.38;4942257;29;1105;-47
2024/02/26 11:04:30;;;;;;;;;;;;;;;16.18;50.08;100553.22;4942045;29;1268;-45
2024/02/26 11:06:57;;;;;;;;;;;;;;;18.01;48.27;100554.25;4958718;29;1200;-43
2024/02/26 11:09:22;;;;;;;;;;;;;;;16.54;49.40;100547.91;4958980;29;1176;-45
2024/02/26 11:11:48;;;;;;;;;;;;;;;16.24;48.70;100546.59;4959319;29;1350;-47
2024/02/26 11:14:13;;;;;;;;;;;;;;;15.11;47.85;100414.16;4957840;29;1228;-44
2024/02/26 11:16:39;;;;;;;;;;;;;;;15.73;47.14;100540.56;4958803;28;1987;-44
2024/02/26 11:19:05;;;;;;;;;;;;;;;15.60;46.33;100527.34;4957945;29;1358;-43
2024/02/26 11:21:39;;;;;;;;;;;;;;;15.46;45.88;100530.97;4958279;29;1981;-46
2024/02/26 11:24:14;;;;;;;;;;;;;;;17.01;48.68;100531.06;4958716;29;1263;-46
2024/02/26 11:26:47;;;;;;;;;;;;;;;16.06;48.62;100531.09;4957924;29;1541;-42
2024/02/26 11:29:14;;;;;;;;;;;;;;;17.46;49.02;100534.69;4954130;29;1098;-46
2024/02/26 11:31:39;;;;;;;;;;;;;;;16.97;49.39;100533.13;4949472;29;1272;-46
2024/02/26 11:34:06;;;;;;;;;;;;;;;16.29;49.02;100528.53;4939940;29;1454;-46
2024/02/26 11:36:32;;;;;;;;;;;;;;;16.00;48.66;100526.22;4958772;29;1910;-46
2024/02/26 11:38:57;;;;;;;;;;;;;;;15.73;47.98;100525.47;4941392;29;1138;-44
2024/02/26 11:41:22;;;;;;;;;;;;;;;15.64;47.11;100528.81;4958134;29;1304;-44
2024/02/26 11:43:52;;;;;;;;;;;;;;;16.56;48.76;100530.06;4957813;29;1521;-43
2024/02/26 11:46:28;;;;;;;;;;;;;;;15.86;48.42;100535.19;4956635;29;1208;-43
2024/02/26 11:48:58;;;;;;;;;;;;;;;15.67;47.41;100526.78;4955000;29;1502;-41
2024/02/26 11:51:41;;;;;;;;;;;;;;;15.48;47.01;100531.72;4952883;28;1930;-44
2024/02/26 11:54:07;;;;;;;;;;;;;;;16.79;48.68;100530.09;4939469;29;995;-44
2024/02/26 11:56:33;;;;;;;;;;;;;;;16.10;48.98;100524.59;4957726;29;1922;-45
2024/02/26 11:58:59;;;;;;;;;;;;;;;15.68;48.03;100519.69;4956452;29;1396;-41
2024/02/26 12:01:37;;;;;;;;;;;;;;;15.53;47.74;100516.34;4946020;29;1605;-42
2024/02/26 12:04:14;;;;;;;;;;;;;;;16.86;48.59;100520.69;4958329;29;977;-40
2024/02/26 12:06:46;;;;;;;;;;;;;;;15.95;48.50;100513.28;4958527;29;1050;-43
2024/02/26 12:09:13;;;;;;;;;;;;;;;15.60;47.78;100516.75;4958798;29;995;-45
2024/02/26 12:11:39;;;;;;;;;;;;;;;16.71;48.03;100514.75;4956852;29;1074;-43
2024/02/26 12:14:08;;;;;;;;;;;;;;;15.82;48.51;100517.78;4954226;29;1031;-44
2024/02/26 12:16:37;;;;;;;;;;;;;;;15.58;47.53;100521.31;4958444;29;1977;-42
2024/02/26 12:19:06;;;;;;;;;;;;;;;16.45;48.83;100520.22;4954635;29;1048;-45
2024/02/26 12:21:34;;;;;;;;;;;;;;;16.74;48.14;100522.47;4949015;29;2773;-43
2024/02/26 12:24:13;;;;;;;;;;;;;;;15.88;48.47;100526.16;4954029;29;1358;-42
2024/02/26 12:26:38;;;;;;;;;;;;;;;15.63;47.97;100525.28;4951089;29;1013;-44
2024/02/26 12:29:04;;;;;;;;;;;;;;;15.49;47.09;100523.66;4957774;28;1205;-46
2024/02/26 12:31:31;;;;;;;;;;;;;;;15.37;46.45;100517.44;4957965;29;1122;-45
2024/02/26 12:33:56;;;;;;;;;;;;;;;16.64;48.22;100524.16;4950107;29;897;-45
2024/02/26 12:36:23;;;;;;;;;;;;;;;16.24;48.37;100522.72;4954552;29;1991;-44
2024/02/26 12:38:49;;;;;;;;;;;;;;;15.76;47.90;100524.41;4957422;29;1068;-42
2024/02/26 12:41:14;;;;;;;;;;;;;;;15.55;47.11;100522.34;4940145;29;1189;-43